sensor_id;sensor_type;location;lat;lon;timestamp;P1;durP1;ratioP1;P2;durP2;ratioP2
17079;SDS011;8655;57.106;-2.088;2023-05-16T00:00:05;1.77;;;0.90;;
17079;SDS011;8655;57.106;-2.088;2023-05-16T00:02:33;1.50;;;0.77;;
17079;SDS011;8655;57.106;-2.088;2023-05-16T00:05:01;1.30;;;0.80;;
17079;SDS011;8655;57.106;-2.088;2023-05-16T00:07:29;0.90;;;0.70;;
17079;SDS011;8655;57.106;-2.088;2023-05-16T00:09:55;0.63;;;0.63;;
17079;SDS011;8655;57.106;-2.088;2023-05-16T00:12:21;1.30;;;0.90;;
17079;SDS011;8655;57.106;-2.088;2023-05-16T00:14:47;1.17;;;0.77;;
17079;SDS011;8655;57.106;-2.088;2023-05-16T00:17:14;1.00;;;0.80;;
17079;SDS011;8655;57.106;-2.088;2023-05-16T00:19:41;1.20;;;0.80;;
17079;SDS011;8655;57.106;-2.088;2023-05-16T00:22:08;1.20;;;0.90;;
17079;SDS011;8655;57.106;-2.088;2023-05-16T00:24:35;1.13;;;0.87;;
17079;SDS011;8655;57.106;-2.088;2023-05-16T00:27:01;1.40;;;0.90;;
17079;SDS011;8655;57.106;-2.088;2023-05-16T00:29:27;1.10;;;0.97;;
17079;SDS011;8655;57.106;-2.088;2023-05-16T00:31:56;1.33;;;0.90;;
17079;SDS011;8655;57.106;-2.088;2023-05-16T00:34:22;1.00;;;0.80;;
17079;SDS011;8655;57.106;-2.088;2023-05-16T00:36:50;0.90;;;0.70;;
17079;SDS011;8655;57.106;-2.088;2023-05-16T00:39:16;2.57;;;0.83;;
17079;SDS011;8655;57.106;-2.088;2023-05-16T00:41:42;1.20;;;0.93;;
17079;SDS011;8655;57.106;-2.088;2023-05-16T00:44:08;1.30;;;0.87;;
17079;SDS011;8655;57.106;-2.088;2023-05-16T00:46:34;1.07;;;0.87;;
17079;SDS011;8655;57.106;-2.088;2023-05-16T00:49:00;1.47;;;1.00;;
17079;SDS011;8655;57.106;-2.088;2023-05-16T00:51:26;1.10;;;0.80;;
17079;SDS011;8655;57.106;-2.088;2023-05-16T00:53:52;1.07;;;0.80;;
17079;SDS011;8655;57.106;-2.088;2023-05-16T00:56:20;1.17;;;0.80;;
17079;SDS011;8655;57.106;-2.088;2023-05-16T00:58:46;1.30;;;0.90;;
17079;SDS011;8655;57.106;-2.088;2023-05-16T01:01:12;0.80;;;0.80;;
17079;SDS011;8655;57.106;-2.088;2023-05-16T01:03:38;1.73;;;0.87;;
17079;SDS011;8655;57.106;-2.088;2023-05-16T01:06:06;1.30;;;0.90;;
17079;SDS011;8655;57.106;-2.088;2023-05-16T01:08:32;1.30;;;0.87;;
17079;SDS011;8655;57.106;-2.088;2023-05-16T01:11:07;1.03;;;0.73;;
17079;SDS011;8655;57.106;-2.088;2023-05-16T01:16:20;1.27;;;0.97;;
17079;SDS011;8655;57.106;-2.088;2023-05-16T01:21:52;1.10;;;0.87;;
17079;SDS011;8655;57.106;-2.088;2023-05-16T01:24:33;0.90;;;0.90;;
17079;SDS011;8655;57.106;-2.088;2023-05-16T01:27:22;0.80;;;0.70;;
17079;SDS011;8655;57.106;-2.088;2023-05-16T01:29:48;1.13;;;0.80;;
17079;SDS011;8655;57.106;-2.088;2023-05-16T01:32:20;1.50;;;1.00;;
17079;SDS011;8655;57.106;-2.088;2023-05-16T01:34:46;0.87;;;0.60;;
17079;SDS011;8655;57.106;-2.088;2023-05-16T01:37:23;2.13;;;1.00;;
17079;SDS011;8655;57.106;-2.088;2023-05-16T01:39:58;1.27;;;0.93;;
17079;SDS011;8655;57.106;-2.088;2023-05-16T01:42:32;1.50;;;0.90;;
17079;SDS011;8655;57.106;-2.088;2023-05-16T01:45:05;1.13;;;0.90;;
17079;SDS011;8655;57.106;-2.088;2023-05-16T01:47:39;1.07;;;0.73;;
17079;SDS011;8655;57.106;-2.088;2023-05-16T01:50:09;0.80;;;0.80;;
17079;SDS011;8655;57.106;-2.088;2023-05-16T01:55:44;1.03;;;0.77;;
17079;SDS011;8655;57.106;-2.088;2023-05-16T01:58:11;3.13;;;1.40;;
17079;SDS011;8655;57.106;-2.088;2023-05-16T02:00:41;1.53;;;0.90;;
17079;SDS011;8655;57.106;-2.088;2023-05-16T02:03:07;1.07;;;0.83;;
17079;SDS011;8655;57.106;-2.088;2023-05-16T02:05:33;1.00;;;0.80;;
17079;SDS011;8655;57.106;-2.088;2023-05-16T02:07:59;1.63;;;1.00;;
17079;SDS011;8655;57.106;-2.088;2023-05-16T02:10:25;0.97;;;0.73;;
17079;SDS011;8655;57.106;-2.088;2023-05-16T02:12:51;1.13;;;1.00;;
17079;SDS011;8655;57.106;-2.088;2023-05-16T02:15:17;1.53;;;1.07;;
17079;SDS011;8655;57.106;-2.088;2023-05-16T02:17:43;1.13;;;0.80;;
17079;SDS011;8655;57.106;-2.088;2023-05-16T02:20:08;1.50;;;0.90;;
17079;SDS011;8655;57.106;-2.088;2023-05-16T02:22:35;2.03;;;1.17;;
17079;SDS011;8655;57.106;-2.088;2023-05-16T02:25:03;1.17;;;0.73;;
17079;SDS011;8655;57.106;-2.088;2023-05-16T02:27:30;1.50;;;1.03;;
17079;SDS011;8655;57.106;-2.088;2023-05-16T02:29:56;1.73;;;0.90;;
17079;SDS011;8655;57.106;-2.088;2023-05-16T02:32:21;1.50;;;1.10;;
17079;SDS011;8655;57.106;-2.088;2023-05-16T02:34:47;2.90;;;1.10;;
17079;SDS011;8655;57.106;-2.088;2023-05-16T02:37:13;1.70;;;0.90;;
17079;SDS011;8655;57.106;-2.088;2023-05-16T02:39:39;1.27;;;0.80;;
17079;SDS011;8655;57.106;-2.088;2023-05-16T02:42:05;1.73;;;1.10;;
17079;SDS011;8655;57.106;-2.088;2023-05-16T02:44:31;1.00;;;0.90;;
17079;SDS011;8655;57.106;-2.088;2023-05-16T02:46:57;1.50;;;1.00;;
17079;SDS011;8655;57.106;-2.088;2023-05-16T02:49:23;2.77;;;1.00;;
17079;SDS011;8655;57.106;-2.088;2023-05-16T02:51:49;0.80;;;0.80;;
17079;SDS011;8655;57.106;-2.088;2023-05-16T02:54:14;0.90;;;0.70;;
17079;SDS011;8655;57.106;-2.088;2023-05-16T02:56:40;1.97;;;1.27;;
17079;SDS011;8655;57.106;-2.088;2023-05-16T02:59:06;1.97;;;1.10;;
17079;SDS011;8655;57.106;-2.088;2023-05-16T03:01:32;1.50;;;1.03;;
17079;SDS011;8655;57.106;-2.088;2023-05-16T03:03:58;2.37;;;1.17;;
17079;SDS011;8655;57.106;-2.088;2023-05-16T03:06:24;2.33;;;1.17;;
17079;SDS011;8655;57.106;-2.088;2023-05-16T03:08:50;0.87;;;0.70;;
17079;SDS011;8655;57.106;-2.088;2023-05-16T03:11:16;2.50;;;1.30;;
17079;SDS011;8655;57.106;-2.088;2023-05-16T03:13:46;1.53;;;1.10;;
17079;SDS011;8655;57.106;-2.088;2023-05-16T03:16:12;1.17;;;0.93;;
17079;SDS011;8655;57.106;-2.088;2023-05-16T03:18:39;1.40;;;0.93;;
17079;SDS011;8655;57.106;-2.088;2023-05-16T03:21:05;1.53;;;0.90;;
17079;SDS011;8655;57.106;-2.088;2023-05-16T03:23:32;1.03;;;0.97;;
17079;SDS011;8655;57.106;-2.088;2023-05-16T03:25:57;1.87;;;1.10;;
17079;SDS011;8655;57.106;-2.088;2023-05-16T03:28:23;1.43;;;1.07;;
17079;SDS011;8655;57.106;-2.088;2023-05-16T03:30:49;1.50;;;1.10;;
17079;SDS011;8655;57.106;-2.088;2023-05-16T03:33:15;1.37;;;1.10;;
17079;SDS011;8655;57.106;-2.088;2023-05-16T03:35:40;1.60;;;1.20;;
17079;SDS011;8655;57.106;-2.088;2023-05-16T03:38:07;1.73;;;1.10;;
17079;SDS011;8655;57.106;-2.088;2023-05-16T03:40:33;1.43;;;1.00;;
17079;SDS011;8655;57.106;-2.088;2023-05-16T03:42:59;1.50;;;1.00;;
17079;SDS011;8655;57.106;-2.088;2023-05-16T03:45:25;2.07;;;1.20;;
17079;SDS011;8655;57.106;-2.088;2023-05-16T03:47:50;1.20;;;1.10;;
17079;SDS011;8655;57.106;-2.088;2023-05-16T03:50:16;1.33;;;1.20;;
17079;SDS011;8655;57.106;-2.088;2023-05-16T03:52:42;1.93;;;1.10;;
17079;SDS011;8655;57.106;-2.088;2023-05-16T03:55:08;1.17;;;1.00;;
17079;SDS011;8655;57.106;-2.088;2023-05-16T03:57:35;1.73;;;1.23;;
17079;SDS011;8655;57.106;-2.088;2023-05-16T04:00:02;1.13;;;1.00;;
17079;SDS011;8655;57.106;-2.088;2023-05-16T04:02:31;1.30;;;1.20;;
17079;SDS011;8655;57.106;-2.088;2023-05-16T04:04:57;1.77;;;1.10;;
17079;SDS011;8655;57.106;-2.088;2023-05-16T04:07:22;1.63;;;1.23;;
17079;SDS011;8655;57.106;-2.088;2023-05-16T04:09:48;1.47;;;1.23;;
17079;SDS011;8655;57.106;-2.088;2023-05-16T04:12:15;1.77;;;1.20;;
17079;SDS011;8655;57.106;-2.088;2023-05-16T04:14:41;1.67;;;1.20;;
17079;SDS011;8655;57.106;-2.088;2023-05-16T04:17:06;1.13;;;0.90;;
17079;SDS011;8655;57.106;-2.088;2023-05-16T04:19:32;2.47;;;1.40;;
17079;SDS011;8655;57.106;-2.088;2023-05-16T04:21:57;1.10;;;0.97;;
17079;SDS011;8655;57.106;-2.088;2023-05-16T04:24:23;2.07;;;1.20;;
17079;SDS011;8655;57.106;-2.088;2023-05-16T04:26:52;1.83;;;1.33;;
17079;SDS011;8655;57.106;-2.088;2023-05-16T04:29:19;2.63;;;1.47;;
17079;SDS011;8655;57.106;-2.088;2023-05-16T04:31:45;1.90;;;1.30;;
17079;SDS011;8655;57.106;-2.088;2023-05-16T04:34:11;2.13;;;1.40;;
17079;SDS011;8655;57.106;-2.088;2023-05-16T04:36:37;2.20;;;1.40;;
17079;SDS011;8655;57.106;-2.088;2023-05-16T04:39:03;1.83;;;1.20;;
17079;SDS011;8655;57.106;-2.088;2023-05-16T04:41:28;2.30;;;1.60;;
17079;SDS011;8655;57.106;-2.088;2023-05-16T04:43:54;1.97;;;1.60;;
17079;SDS011;8655;57.106;-2.088;2023-05-16T04:46:20;2.00;;;1.20;;
17079;SDS011;8655;57.106;-2.088;2023-05-16T04:48:46;2.57;;;1.33;;
17079;SDS011;8655;57.106;-2.088;2023-05-16T04:51:11;2.57;;;1.50;;
17079;SDS011;8655;57.106;-2.088;2023-05-16T04:53:37;2.03;;;1.40;;
17079;SDS011;8655;57.106;-2.088;2023-05-16T04:56:02;2.23;;;1.40;;
17079;SDS011;8655;57.106;-2.088;2023-05-16T04:58:30;1.63;;;1.33;;
17079;SDS011;8655;57.106;-2.088;2023-05-16T05:00:56;3.20;;;1.50;;
17079;SDS011;8655;57.106;-2.088;2023-05-16T05:03:22;2.17;;;1.20;;
17079;SDS011;8655;57.106;-2.088;2023-05-16T05:05:48;2.00;;;1.30;;
17079;SDS011;8655;57.106;-2.088;2023-05-16T05:08:13;2.50;;;1.47;;
17079;SDS011;8655;57.106;-2.088;2023-05-16T05:10:39;1.93;;;1.30;;
17079;SDS011;8655;57.106;-2.088;2023-05-16T05:13:05;2.27;;;1.50;;
17079;SDS011;8655;57.106;-2.088;2023-05-16T05:15:30;2.60;;;1.50;;
17079;SDS011;8655;57.106;-2.088;2023-05-16T05:17:56;2.17;;;1.43;;
17079;SDS011;8655;57.106;-2.088;2023-05-16T05:20:22;2.93;;;1.67;;
17079;SDS011;8655;57.106;-2.088;2023-05-16T05:22:47;3.37;;;1.80;;
17079;SDS011;8655;57.106;-2.088;2023-05-16T05:25:13;1.67;;;1.30;;
17079;SDS011;8655;57.106;-2.088;2023-05-16T05:27:39;2.33;;;1.40;;
17079;SDS011;8655;57.106;-2.088;2023-05-16T05:30:05;1.83;;;1.50;;
17079;SDS011;8655;57.106;-2.088;2023-05-16T05:32:31;2.17;;;1.47;;
17079;SDS011;8655;57.106;-2.088;2023-05-16T05:34:57;2.47;;;1.50;;
17079;SDS011;8655;57.106;-2.088;2023-05-16T05:37:23;2.43;;;1.57;;
17079;SDS011;8655;57.106;-2.088;2023-05-16T05:39:49;2.27;;;1.40;;
17079;SDS011;8655;57.106;-2.088;2023-05-16T05:42:15;3.27;;;1.87;;
17079;SDS011;8655;57.106;-2.088;2023-05-16T05:44:40;1.93;;;1.53;;
17079;SDS011;8655;57.106;-2.088;2023-05-16T05:47:06;3.17;;;1.70;;
17079;SDS011;8655;57.106;-2.088;2023-05-16T05:49:32;1.80;;;1.43;;
17079;SDS011;8655;57.106;-2.088;2023-05-16T05:51:58;2.33;;;1.47;;
17079;SDS011;8655;57.106;-2.088;2023-05-16T05:54:24;2.57;;;1.70;;
17079;SDS011;8655;57.106;-2.088;2023-05-16T05:56:50;1.73;;;1.50;;
17079;SDS011;8655;57.106;-2.088;2023-05-16T05:59:15;2.73;;;1.77;;
17079;SDS011;8655;57.106;-2.088;2023-05-16T06:01:41;2.17;;;1.60;;
17079;SDS011;8655;57.106;-2.088;2023-05-16T06:04:10;3.47;;;1.40;;
17079;SDS011;8655;57.106;-2.088;2023-05-16T06:06:36;2.60;;;1.63;;
17079;SDS011;8655;57.106;-2.088;2023-05-16T06:09:02;2.43;;;1.77;;
17079;SDS011;8655;57.106;-2.088;2023-05-16T06:11:28;1.97;;;1.57;;
17079;SDS011;8655;57.106;-2.088;2023-05-16T06:13:53;2.83;;;1.70;;
17079;SDS011;8655;57.106;-2.088;2023-05-16T06:16:22;2.47;;;1.80;;
17079;SDS011;8655;57.106;-2.088;2023-05-16T06:18:49;1.83;;;1.30;;
17079;SDS011;8655;57.106;-2.088;2023-05-16T06:21:15;2.07;;;1.67;;
17079;SDS011;8655;57.106;-2.088;2023-05-16T06:23:41;1.57;;;1.40;;
17079;SDS011;8655;57.106;-2.088;2023-05-16T06:26:06;3.53;;;1.90;;
17079;SDS011;8655;57.106;-2.088;2023-05-16T06:28:32;2.70;;;1.97;;
17079;SDS011;8655;57.106;-2.088;2023-05-16T06:30:58;3.00;;;2.03;;
17079;SDS011;8655;57.106;-2.088;2023-05-16T06:33:24;3.57;;;1.63;;
17079;SDS011;8655;57.106;-2.088;2023-05-16T06:35:50;4.30;;;1.87;;
17079;SDS011;8655;57.106;-2.088;2023-05-16T06:38:16;2.80;;;2.00;;
17079;SDS011;8655;57.106;-2.088;2023-05-16T06:40:43;2.40;;;1.63;;
17079;SDS011;8655;57.106;-2.088;2023-05-16T06:43:09;3.03;;;1.87;;
17079;SDS011;8655;57.106;-2.088;2023-05-16T06:45:36;3.33;;;1.67;;
17079;SDS011;8655;57.106;-2.088;2023-05-16T06:48:02;2.73;;;1.80;;
17079;SDS011;8655;57.106;-2.088;2023-05-16T06:50:28;3.23;;;1.73;;
17079;SDS011;8655;57.106;-2.088;2023-05-16T06:52:54;3.17;;;1.85;;
17079;SDS011;8655;57.106;-2.088;2023-05-16T06:55:19;2.33;;;1.60;;
17079;SDS011;8655;57.106;-2.088;2023-05-16T06:57:45;3.25;;;2.03;;
17079;SDS011;8655;57.106;-2.088;2023-05-16T07:00:12;3.10;;;2.00;;
17079;SDS011;8655;57.106;-2.088;2023-05-16T07:02:38;2.03;;;1.63;;
17079;SDS011;8655;57.106;-2.088;2023-05-16T07:05:03;3.33;;;1.83;;
17079;SDS011;8655;57.106;-2.088;2023-05-16T07:07:30;2.77;;;1.90;;
17079;SDS011;8655;57.106;-2.088;2023-05-16T07:09:56;3.33;;;1.80;;
17079;SDS011;8655;57.106;-2.088;2023-05-16T07:12:21;3.43;;;1.90;;
17079;SDS011;8655;57.106;-2.088;2023-05-16T07:14:47;5.13;;;2.10;;
17079;SDS011;8655;57.106;-2.088;2023-05-16T07:17:13;1.90;;;1.50;;
17079;SDS011;8655;57.106;-2.088;2023-05-16T07:19:39;2.33;;;1.60;;
17079;SDS011;8655;57.106;-2.088;2023-05-16T07:22:05;2.40;;;1.67;;
17079;SDS011;8655;57.106;-2.088;2023-05-16T07:24:30;2.60;;;1.80;;
17079;SDS011;8655;57.106;-2.088;2023-05-16T07:26:56;2.83;;;1.92;;
17079;SDS011;8655;57.106;-2.088;2023-05-16T07:29:22;2.78;;;1.80;;
17079;SDS011;8655;57.106;-2.088;2023-05-16T07:31:48;3.10;;;1.60;;
17079;SDS011;8655;57.106;-2.088;2023-05-16T07:34:14;3.05;;;1.73;;
17079;SDS011;8655;57.106;-2.088;2023-05-16T07:36:40;2.22;;;1.67;;
17079;SDS011;8655;57.106;-2.088;2023-05-16T07:39:06;1.85;;;1.50;;
17079;SDS011;8655;57.106;-2.088;2023-05-16T07:41:32;2.53;;;1.70;;
17079;SDS011;8655;57.106;-2.088;2023-05-16T07:43:57;2.42;;;1.55;;
17079;SDS011;8655;57.106;-2.088;2023-05-16T07:46:23;2.13;;;1.67;;
17079;SDS011;8655;57.106;-2.088;2023-05-16T07:48:49;2.77;;;1.73;;
17079;SDS011;8655;57.106;-2.088;2023-05-16T07:51:15;2.80;;;1.60;;
17079;SDS011;8655;57.106;-2.088;2023-05-16T07:53:41;1.92;;;1.58;;
17079;SDS011;8655;57.106;-2.088;2023-05-16T07:56:06;2.30;;;1.40;;
17079;SDS011;8655;57.106;-2.088;2023-05-16T07:58:32;2.20;;;1.65;;
17079;SDS011;8655;57.106;-2.088;2023-05-16T08:00:58;2.53;;;1.57;;
17079;SDS011;8655;57.106;-2.088;2023-05-16T08:03:24;3.72;;;1.70;;
17079;SDS011;8655;57.106;-2.088;2023-05-16T08:05:50;2.28;;;1.42;;
17079;SDS011;8655;57.106;-2.088;2023-05-16T08:08:16;2.88;;;1.80;;
17079;SDS011;8655;57.106;-2.088;2023-05-16T08:10:42;2.38;;;1.70;;
17079;SDS011;8655;57.106;-2.088;2023-05-16T08:13:08;2.08;;;1.70;;
17079;SDS011;8655;57.106;-2.088;2023-05-16T08:15:33;1.80;;;1.48;;
17079;SDS011;8655;57.106;-2.088;2023-05-16T08:17:59;2.67;;;1.65;;
17079;SDS011;8655;57.106;-2.088;2023-05-16T08:20:25;2.10;;;1.70;;
17079;SDS011;8655;57.106;-2.088;2023-05-16T08:22:52;1.77;;;1.60;;
17079;SDS011;8655;57.106;-2.088;2023-05-16T08:25:18;2.40;;;1.73;;
17079;SDS011;8655;57.106;-2.088;2023-05-16T08:27:44;1.63;;;1.38;;
17079;SDS011;8655;57.106;-2.088;2023-05-16T08:30:10;2.10;;;1.70;;
17079;SDS011;8655;57.106;-2.088;2023-05-16T08:32:37;3.33;;;1.88;;
17079;SDS011;8655;57.106;-2.088;2023-05-16T08:35:03;3.65;;;1.67;;
17079;SDS011;8655;57.106;-2.088;2023-05-16T08:37:29;2.58;;;1.45;;
17079;SDS011;8655;57.106;-2.088;2023-05-16T08:39:55;2.53;;;1.55;;
17079;SDS011;8655;57.106;-2.088;2023-05-16T08:42:21;2.20;;;1.40;;
17079;SDS011;8655;57.106;-2.088;2023-05-16T08:44:46;2.20;;;1.60;;
17079;SDS011;8655;57.106;-2.088;2023-05-16T08:47:16;2.73;;;1.67;;
17079;SDS011;8655;57.106;-2.088;2023-05-16T08:49:43;4.70;;;1.67;;
17079;SDS011;8655;57.106;-2.088;2023-05-16T08:52:12;2.27;;;1.60;;
17079;SDS011;8655;57.106;-2.088;2023-05-16T08:54:41;2.30;;;1.60;;
17079;SDS011;8655;57.106;-2.088;2023-05-16T08:57:08;2.22;;;1.52;;
17079;SDS011;8655;57.106;-2.088;2023-05-16T08:59:34;2.78;;;1.77;;
17079;SDS011;8655;57.106;-2.088;2023-05-16T09:02:00;2.67;;;1.52;;
17079;SDS011;8655;57.106;-2.088;2023-05-16T09:04:26;2.63;;;1.50;;
17079;SDS011;8655;57.106;-2.088;2023-05-16T09:06:53;2.50;;;1.80;;
17079;SDS011;8655;57.106;-2.088;2023-05-16T09:09:18;2.27;;;1.50;;
17079;SDS011;8655;57.106;-2.088;2023-05-16T09:11:44;1.70;;;1.50;;
17079;SDS011;8655;57.106;-2.088;2023-05-16T09:14:10;1.80;;;1.30;;
17079;SDS011;8655;57.106;-2.088;2023-05-16T09:16:36;2.35;;;1.52;;
17079;SDS011;8655;57.106;-2.088;2023-05-16T09:19:01;2.00;;;1.40;;
17079;SDS011;8655;57.106;-2.088;2023-05-16T09:21:31;1.95;;;1.58;;
17079;SDS011;8655;57.106;-2.088;2023-05-16T09:24:03;2.25;;;1.77;;
17079;SDS011;8655;57.106;-2.088;2023-05-16T09:26:35;2.83;;;1.83;;
17079;SDS011;8655;57.106;-2.088;2023-05-16T09:29:09;2.70;;;1.70;;
17079;SDS011;8655;57.106;-2.088;2023-05-16T09:31:38;2.97;;;1.77;;
17079;SDS011;8655;57.106;-2.088;2023-05-16T09:34:07;1.73;;;1.50;;
17079;SDS011;8655;57.106;-2.088;2023-05-16T09:36:35;2.20;;;1.67;;
17079;SDS011;8655;57.106;-2.088;2023-05-16T09:39:01;2.30;;;1.40;;
17079;SDS011;8655;57.106;-2.088;2023-05-16T09:41:27;1.43;;;1.33;;
17079;SDS011;8655;57.106;-2.088;2023-05-16T09:43:56;3.40;;;1.60;;
17079;SDS011;8655;57.106;-2.088;2023-05-16T09:46:25;2.47;;;1.70;;
17079;SDS011;8655;57.106;-2.088;2023-05-16T09:48:52;2.43;;;1.70;;
17079;SDS011;8655;57.106;-2.088;2023-05-16T09:51:20;2.33;;;1.43;;
17079;SDS011;8655;57.106;-2.088;2023-05-16T09:53:47;1.67;;;1.30;;
17079;SDS011;8655;57.106;-2.088;2023-05-16T09:56:13;1.85;;;1.60;;
17079;SDS011;8655;57.106;-2.088;2023-05-16T09:58:43;2.07;;;1.50;;
17079;SDS011;8655;57.106;-2.088;2023-05-16T10:01:10;2.50;;;1.37;;
17079;SDS011;8655;57.106;-2.088;2023-05-16T10:03:36;2.87;;;1.70;;
17079;SDS011;8655;57.106;-2.088;2023-05-16T10:06:03;1.63;;;1.40;;
17079;SDS011;8655;57.106;-2.088;2023-05-16T10:08:31;2.37;;;1.60;;
17079;SDS011;8655;57.106;-2.088;2023-05-16T10:11:00;2.05;;;1.42;;
17079;SDS011;8655;57.106;-2.088;2023-05-16T10:13:31;2.13;;;1.50;;
17079;SDS011;8655;57.106;-2.088;2023-05-16T10:15:59;2.45;;;1.60;;
17079;SDS011;8655;57.106;-2.088;2023-05-16T10:18:31;3.15;;;1.50;;
17079;SDS011;8655;57.106;-2.088;2023-05-16T10:21:02;3.05;;;1.70;;
17079;SDS011;8655;57.106;-2.088;2023-05-16T10:23:30;2.27;;;1.60;;
17079;SDS011;8655;57.106;-2.088;2023-05-16T10:25:56;1.90;;;1.40;;
17079;SDS011;8655;57.106;-2.088;2023-05-16T10:28:23;1.88;;;1.58;;
17079;SDS011;8655;57.106;-2.088;2023-05-16T10:30:49;2.27;;;1.47;;
17079;SDS011;8655;57.106;-2.088;2023-05-16T10:33:16;3.17;;;1.77;;
17079;SDS011;8655;57.106;-2.088;2023-05-16T10:35:43;2.58;;;1.65;;
17079;SDS011;8655;57.106;-2.088;2023-05-16T10:38:10;1.90;;;1.60;;
17079;SDS011;8655;57.106;-2.088;2023-05-16T10:40:38;2.13;;;1.50;;
17079;SDS011;8655;57.106;-2.088;2023-05-16T10:43:05;2.10;;;1.70;;
17079;SDS011;8655;57.106;-2.088;2023-05-16T10:45:32;1.90;;;1.50;;
17079;SDS011;8655;57.106;-2.088;2023-05-16T10:48:04;3.67;;;1.57;;
17079;SDS011;8655;57.106;-2.088;2023-05-16T10:55:45;2.50;;;1.60;;
17079;SDS011;8655;57.106;-2.088;2023-05-16T10:58:21;1.65;;;1.50;;
17079;SDS011;8655;57.106;-2.088;2023-05-16T11:00:48;2.13;;;1.40;;
17079;SDS011;8655;57.106;-2.088;2023-05-16T11:03:21;3.00;;;1.83;;
17079;SDS011;8655;57.106;-2.088;2023-05-16T11:05:50;2.63;;;1.93;;
17079;SDS011;8655;57.106;-2.088;2023-05-16T11:08:18;2.33;;;1.53;;
17079;SDS011;8655;57.106;-2.088;2023-05-16T11:10:43;2.63;;;1.60;;
17079;SDS011;8655;57.106;-2.088;2023-05-16T11:13:09;3.47;;;1.60;;
17079;SDS011;8655;57.106;-2.088;2023-05-16T11:15:35;2.33;;;1.58;;
17079;SDS011;8655;57.106;-2.088;2023-05-16T11:18:14;3.13;;;1.53;;
17079;SDS011;8655;57.106;-2.088;2023-05-16T11:20:41;2.35;;;1.60;;
17079;SDS011;8655;57.106;-2.088;2023-05-16T11:25:41;2.43;;;1.60;;
17079;SDS011;8655;57.106;-2.088;2023-05-16T11:28:12;1.60;;;1.20;;
17079;SDS011;8655;57.106;-2.088;2023-05-16T11:30:53;2.53;;;1.50;;
17079;SDS011;8655;57.106;-2.088;2023-05-16T11:33:22;2.33;;;1.43;;
17079;SDS011;8655;57.106;-2.088;2023-05-16T11:38:33;3.17;;;1.77;;
17079;SDS011;8655;57.106;-2.088;2023-05-16T11:41:06;2.57;;;1.80;;
17079;SDS011;8655;57.106;-2.088;2023-05-16T11:43:43;2.70;;;2.00;;
17079;SDS011;8655;57.106;-2.088;2023-05-16T11:46:09;1.93;;;1.53;;
17079;SDS011;8655;57.106;-2.088;2023-05-16T11:48:39;3.73;;;1.70;;
17079;SDS011;8655;57.106;-2.088;2023-05-16T11:51:05;4.17;;;1.90;;
17079;SDS011;8655;57.106;-2.088;2023-05-16T11:53:31;2.80;;;1.80;;
17079;SDS011;8655;57.106;-2.088;2023-05-16T11:55:58;2.97;;;2.00;;
17079;SDS011;8655;57.106;-2.088;2023-05-16T11:58:26;4.73;;;1.77;;
17079;SDS011;8655;57.106;-2.088;2023-05-16T12:00:52;3.00;;;1.73;;
17079;SDS011;8655;57.106;-2.088;2023-05-16T12:03:18;3.10;;;1.67;;
17079;SDS011;8655;57.106;-2.088;2023-05-16T12:05:51;4.53;;;1.88;;
17079;SDS011;8655;57.106;-2.088;2023-05-16T12:08:18;3.97;;;2.00;;
17079;SDS011;8655;57.106;-2.088;2023-05-16T12:10:46;3.80;;;1.90;;
17079;SDS011;8655;57.106;-2.088;2023-05-16T12:13:17;2.95;;;1.90;;
17079;SDS011;8655;57.106;-2.088;2023-05-16T12:15:44;2.90;;;1.77;;
17079;SDS011;8655;57.106;-2.088;2023-05-16T12:18:11;2.80;;;1.47;;
17079;SDS011;8655;57.106;-2.088;2023-05-16T12:20:37;5.20;;;2.27;;
17079;SDS011;8655;57.106;-2.088;2023-05-16T12:23:04;2.77;;;1.60;;
17079;SDS011;8655;57.106;-2.088;2023-05-16T12:25:31;4.60;;;2.20;;
17079;SDS011;8655;57.106;-2.088;2023-05-16T12:28:00;5.30;;;1.90;;
17079;SDS011;8655;57.106;-2.088;2023-05-16T12:30:27;4.47;;;1.80;;
17079;SDS011;8655;57.106;-2.088;2023-05-16T12:33:10;3.97;;;2.20;;
17079;SDS011;8655;57.106;-2.088;2023-05-16T12:35:39;4.90;;;1.97;;
17079;SDS011;8655;57.106;-2.088;2023-05-16T12:38:09;5.10;;;1.83;;
17079;SDS011;8655;57.106;-2.088;2023-05-16T12:40:36;3.80;;;2.00;;
17079;SDS011;8655;57.106;-2.088;2023-05-16T12:43:03;4.37;;;1.90;;
17079;SDS011;8655;57.106;-2.088;2023-05-16T12:45:36;3.23;;;1.80;;
17079;SDS011;8655;57.106;-2.088;2023-05-16T12:48:10;4.50;;;2.00;;
17079;SDS011;8655;57.106;-2.088;2023-05-16T12:50:38;5.43;;;2.00;;
17079;SDS011;8655;57.106;-2.088;2023-05-16T12:53:04;3.57;;;1.83;;
17079;SDS011;8655;57.106;-2.088;2023-05-16T12:55:34;3.22;;;1.83;;
17079;SDS011;8655;57.106;-2.088;2023-05-16T12:57:59;3.58;;;1.70;;
17079;SDS011;8655;57.106;-2.088;2023-05-16T13:00:25;4.20;;;2.10;;
17079;SDS011;8655;57.106;-2.088;2023-05-16T13:02:51;3.10;;;1.55;;
17079;SDS011;8655;57.106;-2.088;2023-05-16T13:05:17;4.40;;;1.80;;
17079;SDS011;8655;57.106;-2.088;2023-05-16T13:07:42;2.83;;;1.60;;
17079;SDS011;8655;57.106;-2.088;2023-05-16T13:10:09;4.05;;;1.90;;
17079;SDS011;8655;57.106;-2.088;2023-05-16T13:12:39;4.00;;;1.95;;
17079;SDS011;8655;57.106;-2.088;2023-05-16T13:15:06;3.60;;;1.70;;
17079;SDS011;8655;57.106;-2.088;2023-05-16T13:17:33;4.53;;;1.80;;
17079;SDS011;8655;57.106;-2.088;2023-05-16T13:19:59;4.03;;;1.88;;
17079;SDS011;8655;57.106;-2.088;2023-05-16T13:22:25;5.07;;;1.95;;
17079;SDS011;8655;57.106;-2.088;2023-05-16T13:24:51;3.90;;;1.73;;
17079;SDS011;8655;57.106;-2.088;2023-05-16T13:27:17;4.13;;;1.75;;
17079;SDS011;8655;57.106;-2.088;2023-05-16T13:29:43;5.53;;;2.25;;
17079;SDS011;8655;57.106;-2.088;2023-05-16T13:32:09;3.55;;;1.65;;
17079;SDS011;8655;57.106;-2.088;2023-05-16T13:34:34;3.73;;;1.77;;
17079;SDS011;8655;57.106;-2.088;2023-05-16T13:37:00;3.83;;;1.75;;
17079;SDS011;8655;57.106;-2.088;2023-05-16T13:39:26;5.10;;;2.40;;
17079;SDS011;8655;57.106;-2.088;2023-05-16T13:41:51;4.78;;;1.90;;
17079;SDS011;8655;57.106;-2.088;2023-05-16T13:44:17;5.27;;;1.93;;
17079;SDS011;8655;57.106;-2.088;2023-05-16T13:46:43;4.80;;;1.87;;
17079;SDS011;8655;57.106;-2.088;2023-05-16T13:49:09;3.23;;;1.70;;
17079;SDS011;8655;57.106;-2.088;2023-05-16T13:51:35;4.30;;;1.73;;
17079;SDS011;8655;57.106;-2.088;2023-05-16T13:54:01;5.13;;;2.17;;
17079;SDS011;8655;57.106;-2.088;2023-05-16T13:56:26;4.85;;;2.00;;
17079;SDS011;8655;57.106;-2.088;2023-05-16T13:58:52;3.53;;;1.57;;
17079;SDS011;8655;57.106;-2.088;2023-05-16T14:01:18;3.30;;;1.97;;
17079;SDS011;8655;57.106;-2.088;2023-05-16T14:03:43;4.20;;;1.60;;
17079;SDS011;8655;57.106;-2.088;2023-05-16T14:06:09;5.00;;;2.20;;
17079;SDS011;8655;57.106;-2.088;2023-05-16T14:08:35;5.77;;;1.90;;
17079;SDS011;8655;57.106;-2.088;2023-05-16T14:11:00;4.70;;;2.10;;
17079;SDS011;8655;57.106;-2.088;2023-05-16T14:13:26;4.23;;;2.23;;
17079;SDS011;8655;57.106;-2.088;2023-05-16T14:15:52;5.57;;;2.23;;
17079;SDS011;8655;57.106;-2.088;2023-05-16T14:18:17;3.63;;;1.80;;
17079;SDS011;8655;57.106;-2.088;2023-05-16T14:20:43;4.37;;;1.93;;
17079;SDS011;8655;57.106;-2.088;2023-05-16T14:23:09;3.08;;;1.98;;
17079;SDS011;8655;57.106;-2.088;2023-05-16T14:25:34;4.60;;;2.10;;
17079;SDS011;8655;57.106;-2.088;2023-05-16T14:28:00;5.30;;;1.93;;
17079;SDS011;8655;57.106;-2.088;2023-05-16T14:30:26;4.53;;;2.00;;
17079;SDS011;8655;57.106;-2.088;2023-05-16T14:32:51;5.47;;;1.90;;
17079;SDS011;8655;57.106;-2.088;2023-05-16T14:35:17;3.40;;;1.70;;
17079;SDS011;8655;57.106;-2.088;2023-05-16T14:37:44;4.63;;;2.03;;
17079;SDS011;8655;57.106;-2.088;2023-05-16T14:40:10;3.73;;;1.70;;
17079;SDS011;8655;57.106;-2.088;2023-05-16T14:42:36;5.23;;;2.17;;
17079;SDS011;8655;57.106;-2.088;2023-05-16T14:45:02;4.43;;;2.23;;
17079;SDS011;8655;57.106;-2.088;2023-05-16T14:47:28;3.07;;;1.70;;
17079;SDS011;8655;57.106;-2.088;2023-05-16T14:49:55;4.60;;;1.77;;
17079;SDS011;8655;57.106;-2.088;2023-05-16T14:52:20;3.97;;;1.73;;
17079;SDS011;8655;57.106;-2.088;2023-05-16T14:54:46;4.88;;;1.80;;
17079;SDS011;8655;57.106;-2.088;2023-05-16T14:57:12;4.57;;;1.80;;
17079;SDS011;8655;57.106;-2.088;2023-05-16T14:59:38;5.55;;;1.77;;
17079;SDS011;8655;57.106;-2.088;2023-05-16T15:02:03;3.45;;;1.77;;
17079;SDS011;8655;57.106;-2.088;2023-05-16T15:04:31;5.20;;;1.92;;